Terminal Aerodrome Forecast
Issued by NWS Midland/Odessa, TX

Current Version | Previous Version | Text Only | Print | Product List | Glossary On
Versions: 1 2 3 4 5 6 7 8 9 10 11 12
000
FTUS44 KMAF 280521
TAFMAF
TAF
KMAF 280521Z 2806/0106 24006KT P6SM BKN250
     FM281800 25025G35KT 6SM BLDU SCT150 BKN250
     FM010100 28015G22KT P6SM SCT250=

USA.gov is the U.S. government's official web portal to all federal, state and local government web resources and services.